createdAt,value
2019-02-20T00:00:18.249Z,20.53
2019-02-20T00:02:48.597Z,14.90
2019-02-20T00:05:19.368Z,15.67
2019-02-20T00:07:50.261Z,15.77
2019-02-20T00:10:20.570Z,17.93
2019-02-20T00:12:51.431Z,14.00
2019-02-20T00:15:21.801Z,15.50
2019-02-20T00:17:52.435Z,16.70
2019-02-20T00:20:22.804Z,13.80
2019-02-20T00:22:53.458Z,17.73
2019-02-20T00:25:24.143Z,16.53
2019-02-20T00:27:54.893Z,15.10
2019-02-20T00:30:25.508Z,12.27
2019-02-20T00:32:55.851Z,14.23
2019-02-20T00:35:26.452Z,17.23
2019-02-20T00:37:56.862Z,18.77
2019-02-20T00:40:27.319Z,16.07
2019-02-20T00:42:57.641Z,15.63
2019-02-20T00:45:46.916Z,17.40
2019-02-20T00:48:31.024Z,18.30
2019-02-20T00:51:10.368Z,18.03
2019-02-20T00:53:46.966Z,15.50
2019-02-20T00:56:17.657Z,13.97
2019-02-20T00:58:57.092Z,15.00
2019-02-20T01:01:27.400Z,14.50
2019-02-20T01:03:57.773Z,16.47
2019-02-20T01:06:28.205Z,15.37
2019-02-20T01:08:58.804Z,11.43
2019-02-20T01:11:29.187Z,13.87
2019-02-20T01:13:59.768Z,19.67
2019-02-20T01:16:59.456Z,18.73
2019-02-20T01:19:29.786Z,15.87
2019-02-20T01:22:00.121Z,18.17
2019-02-20T01:24:30.450Z,17.03
2019-02-20T01:27:01.049Z,17.70
2019-02-20T01:29:31.416Z,21.37
2019-02-20T01:32:01.718Z,20.33
2019-02-20T01:34:32.105Z,13.00
2019-02-20T01:37:02.424Z,13.07
2019-02-20T01:39:32.764Z,17.80
2019-02-20T01:42:03.099Z,16.57
2019-02-20T01:44:33.485Z,15.70
2019-02-20T01:47:04.137Z,19.57
2019-02-20T01:49:34.474Z,14.83
2019-02-20T01:52:05.610Z,21.87
2019-02-20T01:54:36.258Z,14.83
2019-02-20T01:57:06.846Z,15.67
2019-02-20T01:59:37.151Z,17.87
2019-02-20T02:02:07.751Z,20.97
2019-02-20T02:04:38.140Z,18.73
2019-02-20T02:07:08.570Z,14.37
2019-02-20T02:09:39.192Z,16.33
2019-02-20T02:12:09.533Z,15.80
2019-02-20T02:14:40.161Z,15.67
2019-02-20T02:17:10.535Z,18.07
2019-02-20T02:19:41.185Z,16.70
2019-02-20T02:22:11.532Z,14.70
2019-02-20T02:24:42.481Z,15.43
2019-02-20T02:27:12.875Z,18.40
2019-02-20T02:29:43.220Z,16.17
2019-02-20T02:32:13.542Z,15.47
2019-02-20T02:34:44.288Z,17.53
2019-02-20T02:37:14.652Z,19.43
2019-02-20T02:39:45.058Z,18.10
2019-02-20T02:42:15.664Z,14.80
2019-02-20T02:44:45.983Z,14.80
2019-02-20T02:47:16.741Z,15.30
2019-02-20T02:49:47.341Z,15.33
2019-02-20T02:52:17.930Z,19.33
2019-02-20T02:54:48.479Z,18.67
2019-02-20T02:57:18.785Z,16.63
2019-02-20T02:59:49.344Z,11.60
2019-02-20T03:02:19.695Z,10.90
2019-02-20T03:04:49.952Z,15.30
2019-02-20T03:07:20.562Z,17.80
2019-02-20T03:09:50.896Z,22.43
2019-02-20T03:12:21.629Z,14.93
2019-02-20T03:14:52.546Z,17.47
2019-02-20T03:17:22.993Z,19.23
2019-02-20T03:19:53.268Z,18.13
2019-02-20T03:22:23.603Z,13.97
2019-02-20T03:24:54.301Z,18.43
2019-02-20T03:27:25.026Z,20.13
2019-02-20T03:29:55.345Z,16.13
2019-02-20T03:32:26.045Z,19.93
2019-02-20T03:35:00.524Z,17.07
2019-02-20T03:37:31.088Z,19.53
2019-02-20T03:40:01.881Z,16.87
2019-02-20T03:42:32.560Z,17.80
2019-02-20T03:45:02.902Z,18.27
2019-02-20T03:47:33.516Z,15.97
2019-02-20T03:50:03.987Z,15.50
2019-02-20T03:52:34.341Z,13.27
2019-02-20T03:55:04.808Z,21.57
2019-02-20T03:57:35.391Z,15.07
2019-02-20T04:00:06.805Z,16.10
2019-02-20T04:02:37.856Z,20.07
2019-02-20T04:05:09.175Z,14.43
2019-02-20T04:07:40.032Z,17.93
2019-02-20T04:10:10.365Z,17.90
2019-02-20T04:12:40.654Z,16.80
2019-02-20T04:15:11.297Z,18.93
2019-02-20T04:17:42.041Z,15.37
2019-02-20T04:20:12.357Z,17.03
2019-02-20T04:22:43.111Z,16.13
2019-02-20T04:25:17.869Z,15.90
2019-02-20T04:27:48.225Z,18.43
2019-02-20T04:30:18.779Z,18.90
2019-02-20T04:32:49.150Z,15.60
2019-02-20T04:35:19.528Z,18.27
2019-02-20T04:37:49.773Z,15.40
2019-02-20T04:40:20.101Z,19.90
2019-02-20T04:42:50.489Z,16.43
2019-02-20T04:45:21.260Z,24.67
2019-02-20T04:47:51.742Z,22.47
2019-02-20T04:50:22.328Z,20.90
2019-02-20T04:52:53.049Z,20.27
2019-02-20T04:55:23.636Z,16.47
2019-02-20T04:58:21.399Z,19.70
2019-02-20T05:00:51.736Z,17.07
2019-02-20T05:03:23.307Z,17.30
2019-02-20T05:05:53.682Z,19.97
2019-02-20T05:08:24.279Z,22.70
2019-02-20T05:10:54.563Z,21.33
2019-02-20T05:13:25.387Z,25.27
2019-02-20T05:16:02.938Z,21.93
2019-02-20T05:18:33.303Z,19.40
2019-02-20T05:21:03.663Z,20.77
2019-02-20T05:23:34.340Z,26.00
2019-02-20T05:26:04.690Z,26.23
2019-02-20T05:28:35.365Z,19.17
2019-02-20T05:31:05.766Z,21.03
2019-02-20T05:33:37.141Z,22.13
2019-02-20T05:36:07.550Z,20.37
2019-02-20T05:38:37.945Z,22.37
2019-02-20T05:41:08.314Z,21.43
2019-02-20T05:43:38.955Z,18.10
2019-02-20T05:46:09.324Z,27.83
2019-02-20T05:48:39.690Z,21.70
2019-02-20T05:51:10.093Z,18.17
2019-02-20T05:53:40.736Z,24.07
2019-02-20T05:56:11.673Z,23.63
2019-02-20T05:58:42.043Z,24.50
2019-02-20T06:01:12.466Z,22.00
2019-02-20T06:03:42.861Z,20.53
2019-02-20T06:06:13.499Z,28.43
2019-02-20T06:08:47.027Z,21.57
2019-02-20T06:11:17.677Z,25.97
2019-02-20T06:13:48.195Z,24.40
2019-02-20T06:16:18.589Z,24.07
2019-02-20T06:18:49.562Z,26.23
2019-02-20T06:21:19.981Z,25.87
2019-02-20T06:23:59.693Z,24.57
2019-02-20T06:26:30.710Z,23.60
2019-02-20T06:29:01.417Z,24.37
2019-02-20T06:31:31.843Z,26.40
2019-02-20T06:34:02.231Z,24.47
2019-02-20T06:36:32.641Z,21.90
2019-02-20T06:39:04.913Z,23.00
2019-02-20T06:41:39.388Z,19.97
2019-02-20T06:44:09.331Z,23.20
2019-02-20T06:46:41.210Z,25.10
2019-02-20T06:49:11.877Z,24.57
2019-02-20T06:51:42.193Z,21.00
2019-02-20T06:54:12.558Z,21.40
2019-02-20T06:56:50.252Z,22.87
2019-02-20T06:59:21.598Z,26.53
2019-02-20T07:01:52.003Z,19.80
2019-02-20T07:04:22.332Z,24.70
2019-02-20T07:07:46.391Z,24.33
2019-02-20T07:11:19.464Z,22.87
2019-02-20T07:14:28.753Z,22.13
2019-02-20T07:17:53.659Z,23.00
2019-02-20T07:21:17.062Z,25.13
2019-02-20T07:24:38.243Z,17.87
2019-02-20T07:28:00.212Z,23.67
2019-02-20T07:30:30.599Z,27.17
2019-02-20T07:33:00.966Z,20.90
2019-02-20T07:35:31.294Z,26.53
2019-02-20T07:38:01.700Z,22.57
2019-02-20T07:40:32.039Z,23.37
2019-02-20T07:43:02.788Z,25.63
2019-02-20T07:45:33.434Z,20.97
2019-02-20T07:48:05.975Z,26.63
2019-02-20T07:50:36.689Z,25.83
2019-02-20T07:53:07.353Z,18.97
2019-02-20T07:55:37.804Z,17.67
2019-02-20T07:58:08.959Z,22.93
2019-02-20T08:00:39.604Z,24.77
2019-02-20T08:03:09.965Z,21.93
2019-02-20T08:05:40.330Z,20.87
2019-02-20T08:08:10.742Z,22.17
2019-02-20T08:10:41.162Z,20.77
2019-02-20T08:13:11.998Z,23.43
2019-02-20T08:15:42.597Z,21.63
2019-02-20T08:18:12.914Z,23.57
2019-02-20T08:20:43.985Z,22.00
2019-02-20T08:23:15.130Z,25.53
2019-02-20T08:25:45.550Z,22.90
2019-02-20T08:28:24.388Z,23.97
2019-02-20T08:30:54.743Z,23.50
2019-02-20T08:33:25.118Z,20.37
2019-02-20T08:35:55.751Z,19.80
2019-02-20T08:38:26.117Z,21.60
2019-02-20T08:40:57.112Z,21.20
2019-02-20T08:43:27.480Z,18.63
2019-02-20T08:45:58.302Z,21.70
2019-02-20T08:48:28.718Z,20.53
2019-02-20T08:50:59.050Z,15.97
2019-02-20T08:53:29.403Z,20.93
2019-02-20T08:56:05.705Z,19.03
2019-02-20T08:58:36.026Z,19.77
2019-02-20T09:01:06.484Z,16.47
2019-02-20T09:03:37.424Z,16.07
2019-02-20T09:06:08.074Z,17.10
2019-02-20T09:08:38.471Z,22.80
2019-02-20T09:11:09.113Z,17.40
2019-02-20T09:13:39.863Z,17.93
2019-02-20T09:16:10.219Z,20.40
2019-02-20T09:18:45.838Z,19.70
2019-02-20T09:21:16.321Z,18.63
2019-02-20T09:23:47.011Z,20.73
2019-02-20T09:26:17.391Z,17.50
2019-02-20T09:28:47.811Z,17.47
2019-02-20T09:31:18.198Z,15.30
2019-02-20T09:33:48.560Z,18.33
2019-02-20T09:36:19.031Z,19.00
2019-02-20T09:39:32.217Z,16.97
2019-02-20T09:42:03.067Z,18.27
2019-02-20T09:44:37.995Z,21.87
2019-02-20T09:47:08.320Z,18.00
2019-02-20T09:49:38.655Z,14.70
2019-02-20T09:52:09.248Z,22.10
2019-02-20T09:54:39.748Z,18.07
2019-02-20T09:57:10.327Z,17.40
2019-02-20T09:59:41.137Z,14.97
2019-02-20T10:02:11.463Z,17.67
2019-02-20T10:04:42.579Z,15.37
2019-02-20T10:07:13.226Z,14.73
2019-02-20T10:09:43.876Z,15.60
2019-02-20T10:12:14.478Z,18.23
2019-02-20T10:14:45.084Z,18.90
2019-02-20T10:17:15.685Z,14.27
2019-02-20T10:19:46.042Z,12.70
2019-02-20T10:22:16.931Z,16.40
2019-02-20T10:24:47.299Z,14.77
2019-02-20T10:27:17.953Z,17.17
2019-02-20T10:29:48.721Z,13.63
2019-02-20T10:32:19.089Z,11.83
2019-02-20T10:34:49.851Z,14.00
2019-02-20T10:37:31.978Z,17.03
2019-02-20T10:40:02.369Z,16.37
2019-02-20T10:42:32.998Z,10.77
2019-02-20T10:45:12.382Z,15.20
2019-02-20T10:47:44.034Z,13.93
2019-02-20T10:50:14.775Z,16.23
2019-02-20T10:52:54.390Z,14.97
2019-02-20T10:55:25.116Z,13.57
2019-02-20T10:57:55.724Z,14.80
2019-02-20T11:00:28.866Z,14.57
2019-02-20T11:02:59.341Z,14.90
2019-02-20T11:05:30.132Z,15.00
2019-02-20T11:08:00.821Z,15.83
2019-02-20T11:10:31.441Z,15.13
2019-02-20T11:13:01.937Z,13.37
2019-02-20T11:15:32.601Z,12.77
2019-02-20T11:18:03.046Z,12.10
2019-02-20T11:20:33.377Z,12.33
2019-02-20T11:23:03.940Z,11.07
2019-02-20T11:25:35.347Z,12.77
2019-02-20T11:28:15.868Z,13.70
2019-02-20T11:30:46.486Z,10.37
2019-02-20T11:33:16.834Z,14.27
2019-02-20T11:35:47.220Z,13.37
2019-02-20T11:38:18.087Z,13.60
2019-02-20T11:40:48.785Z,12.10
2019-02-20T11:43:20.861Z,14.70
2019-02-20T11:45:51.466Z,15.37
2019-02-20T11:48:21.856Z,9.77
2019-02-20T11:51:02.734Z,15.37
2019-02-20T11:53:37.273Z,12.53
2019-02-20T11:56:05.522Z,12.13
2019-02-20T11:58:38.165Z,12.53
2019-02-20T12:01:09.004Z,14.63
2019-02-20T12:03:39.468Z,14.07
2019-02-20T12:06:09.848Z,11.63
2019-02-20T12:08:40.196Z,11.90
2019-02-20T12:11:10.778Z,10.23
2019-02-20T12:13:41.183Z,12.23
2019-02-20T12:16:13.810Z,12.80
2019-02-20T12:18:53.565Z,13.60
2019-02-20T12:21:23.907Z,9.20
2019-02-20T12:23:54.787Z,10.23
2019-02-20T12:26:25.374Z,9.73
2019-02-20T12:28:55.696Z,8.67
2019-02-20T12:31:26.088Z,12.00
2019-02-20T12:33:56.441Z,9.70
2019-02-20T12:36:27.175Z,11.07
2019-02-20T12:39:04.343Z,10.63
2019-02-20T12:41:34.700Z,11.33
2019-02-20T12:44:05.418Z,15.43
2019-02-20T12:46:36.030Z,12.60
2019-02-20T12:49:06.341Z,13.00
2019-02-20T12:51:36.713Z,9.77
2019-02-20T12:54:07.071Z,11.77
2019-02-20T12:56:43.622Z,12.53
2019-02-20T12:59:09.789Z,11.47
2019-02-20T13:01:40.412Z,16.43
2019-02-20T13:04:11.086Z,11.27
2019-02-20T13:06:42.485Z,10.87
2019-02-20T13:09:13.750Z,12.40
2019-02-20T13:11:44.767Z,10.07
2019-02-20T13:14:15.090Z,9.40
2019-02-20T13:16:45.759Z,7.70
2019-02-20T13:19:16.797Z,15.17
2019-02-20T13:21:48.258Z,10.07
2019-02-20T13:24:18.843Z,8.97
2019-02-20T13:26:53.014Z,11.47
2019-02-20T13:29:22.521Z,10.30
2019-02-20T13:31:52.805Z,12.43
2019-02-20T13:34:23.114Z,12.50
2019-02-20T13:36:53.477Z,10.70
2019-02-20T13:39:24.218Z,11.00
2019-02-20T13:41:54.895Z,10.83
2019-02-20T13:44:25.532Z,13.43
2019-02-20T13:46:56.642Z,13.33
2019-02-20T13:49:27.858Z,9.73
2019-02-20T13:51:58.293Z,12.70
2019-02-20T13:54:28.653Z,17.80
2019-02-20T13:57:02.005Z,12.80
2019-02-20T13:59:31.349Z,13.87
2019-02-20T14:02:01.693Z,11.83
2019-02-20T14:04:32.611Z,12.57
2019-02-20T14:07:03.338Z,14.97
2019-02-20T14:09:33.829Z,17.97
2019-02-20T14:12:04.215Z,11.73
2019-02-20T14:14:34.712Z,13.07
2019-02-20T14:17:05.333Z,10.30
2019-02-20T14:19:35.692Z,16.07
2019-02-20T14:22:07.822Z,14.30
2019-02-20T14:24:38.185Z,18.90
2019-02-20T14:27:11.159Z,15.80
2019-02-20T14:29:41.389Z,13.40
2019-02-20T14:32:11.746Z,12.83
2019-02-20T14:34:45.521Z,13.73
2019-02-20T14:37:16.006Z,11.33
2019-02-20T14:39:46.438Z,15.50
2019-02-20T14:42:17.851Z,12.23
2019-02-20T14:44:48.254Z,10.80
2019-02-20T14:47:18.608Z,14.87
2019-02-20T14:49:51.086Z,11.27
2019-02-20T14:52:21.433Z,15.60
2019-02-20T14:54:51.799Z,20.20
2019-02-20T14:57:22.438Z,12.27
2019-02-20T14:59:58.907Z,13.53
2019-02-20T15:02:30.075Z,16.53
2019-02-20T15:05:11.976Z,14.40
2019-02-20T15:07:42.159Z,12.10
2019-02-20T15:10:12.961Z,12.00
2019-02-20T15:12:43.640Z,11.30
2019-02-20T15:15:14.668Z,12.77
2019-02-20T15:17:46.671Z,12.83
2019-02-20T15:20:17.432Z,11.30
2019-02-20T15:22:54.227Z,11.80
2019-02-20T15:25:24.671Z,10.60
2019-02-20T15:27:55.237Z,10.70
2019-02-20T15:30:29.819Z,12.67
2019-02-20T15:33:00.495Z,14.27
2019-02-20T15:35:31.031Z,12.73
2019-02-20T15:38:01.361Z,10.00
2019-02-20T15:40:33.231Z,14.67
2019-02-20T15:43:03.555Z,19.30
2019-02-20T15:45:35.373Z,12.80
2019-02-20T15:48:06.400Z,10.43
2019-02-20T15:50:53.989Z,15.43
2019-02-20T15:53:24.637Z,12.80
2019-02-20T15:56:05.441Z,12.97
2019-02-20T15:58:35.795Z,11.97
2019-02-20T16:01:11.532Z,11.70
2019-02-20T16:03:43.380Z,11.77
2019-02-20T16:06:14.119Z,20.57
2019-02-20T16:08:45.064Z,11.43
2019-02-20T16:11:27.838Z,11.93
2019-02-20T16:13:58.167Z,11.63
2019-02-20T16:16:28.834Z,11.07
2019-02-20T16:19:02.254Z,10.87
2019-02-20T16:21:32.892Z,12.30
2019-02-20T16:24:03.296Z,11.83
2019-02-20T16:26:33.641Z,12.80
2019-02-20T16:29:04.062Z,12.07
2019-02-20T16:31:34.414Z,12.00
2019-02-20T16:34:05.292Z,13.10
2019-02-20T16:36:35.652Z,12.70
2019-02-20T16:39:06.975Z,12.37
2019-02-20T16:41:37.822Z,13.00
2019-02-20T16:44:10.084Z,14.27
2019-02-20T16:46:40.298Z,12.07
2019-02-20T16:49:11.137Z,13.20
2019-02-20T16:51:41.586Z,12.53
2019-02-20T16:54:11.883Z,12.87
2019-02-20T16:56:42.239Z,12.23
2019-02-20T16:59:12.625Z,11.83
2019-02-20T17:01:43.476Z,13.30
2019-02-20T17:04:14.108Z,13.13
2019-02-20T17:06:44.497Z,13.47
2019-02-20T17:09:14.794Z,13.47
2019-02-20T17:11:45.135Z,13.37
2019-02-20T17:14:15.781Z,12.97
2019-02-20T17:16:46.364Z,11.47
2019-02-20T17:19:16.991Z,13.53
2019-02-20T17:21:47.947Z,14.57
2019-02-20T17:24:18.531Z,13.70
2019-02-20T17:26:49.121Z,16.23
2019-02-20T17:29:20.017Z,11.33
2019-02-20T17:31:50.598Z,14.87
2019-02-20T17:34:21.263Z,19.20
2019-02-20T17:36:53.169Z,14.47
2019-02-20T17:39:24.062Z,11.87
2019-02-20T17:41:54.469Z,14.50
2019-02-20T17:44:24.957Z,12.60
2019-02-20T17:46:55.737Z,15.90
2019-02-20T17:49:26.061Z,13.77
2019-02-20T17:51:56.442Z,13.77
2019-02-20T17:54:26.759Z,14.13
2019-02-20T17:56:57.662Z,10.93
2019-02-20T17:59:28.284Z,13.13
2019-02-20T18:01:58.684Z,14.37
2019-02-20T18:04:29.376Z,13.23
2019-02-20T18:07:00.051Z,12.23
2019-02-20T18:09:30.364Z,12.93
2019-02-20T18:12:00.707Z,15.93
2019-02-20T18:14:31.335Z,16.67
2019-02-20T18:17:01.685Z,12.47
2019-02-20T18:19:32.018Z,14.47
2019-02-20T18:22:02.350Z,11.50
2019-02-20T18:24:32.715Z,10.67
2019-02-20T18:27:03.783Z,12.97
2019-02-20T18:29:34.202Z,12.07
2019-02-20T18:32:04.631Z,15.03
2019-02-20T18:34:35.220Z,12.97
2019-02-20T18:37:05.595Z,13.73
2019-02-20T18:39:35.947Z,16.60
2019-02-20T18:42:06.288Z,13.17
2019-02-20T18:44:36.927Z,14.13
2019-02-20T18:47:07.718Z,11.23
2019-02-20T18:49:39.022Z,14.20
2019-02-20T18:52:09.862Z,20.33
2019-02-20T18:54:40.224Z,14.53
2019-02-20T18:57:10.603Z,13.57
2019-02-20T18:59:41.657Z,13.47
2019-02-20T19:02:12.038Z,14.40
2019-02-20T19:04:42.378Z,16.70
2019-02-20T19:07:14.280Z,17.93
2019-02-20T19:09:49.284Z,14.07
2019-02-20T19:13:28.428Z,15.00
2019-02-20T19:17:02.639Z,12.17
2019-02-20T19:20:44.330Z,13.43
2019-02-20T19:24:13.718Z,13.30
2019-02-20T19:27:13.803Z,17.10
2019-02-20T19:30:51.056Z,17.50
2019-02-20T19:34:04.350Z,14.13
2019-02-20T19:37:17.026Z,15.37
2019-02-20T19:40:42.004Z,15.13
2019-02-20T19:44:02.152Z,15.83
2019-02-20T19:47:11.018Z,15.27
2019-02-20T19:50:49.838Z,11.83
2019-02-20T19:53:42.548Z,13.27
2019-02-20T19:57:01.862Z,16.43
2019-02-20T20:00:27.864Z,14.63
2019-02-20T20:04:01.482Z,14.33
2019-02-20T20:07:39.516Z,14.97
2019-02-20T20:10:47.298Z,12.93
2019-02-20T20:13:54.188Z,14.57
2019-02-20T20:17:14.704Z,14.97
2019-02-20T20:20:07.099Z,14.30
2019-02-20T20:23:10.424Z,13.90
2019-02-20T20:26:37.233Z,12.77
2019-02-20T20:30:35.239Z,16.13
2019-02-20T20:33:52.359Z,13.93
2019-02-20T20:37:31.112Z,11.20
2019-02-20T20:41:01.409Z,13.70
2019-02-20T20:44:28.203Z,12.53
2019-02-20T20:47:25.265Z,14.77
2019-02-20T20:50:10.530Z,14.60
2019-02-20T20:53:43.672Z,14.13
2019-02-20T20:57:19.616Z,17.10
2019-02-20T21:00:51.654Z,14.27
2019-02-20T21:03:22.377Z,15.63
2019-02-20T21:06:26.272Z,16.10
2019-02-20T21:09:33.184Z,14.63
2019-02-20T21:13:03.941Z,16.57
2019-02-20T21:16:10.704Z,19.10
2019-02-20T21:19:46.816Z,18.30
2019-02-20T21:23:26.817Z,15.67
2019-02-20T21:26:55.878Z,13.50
2019-02-20T21:29:53.865Z,15.80
2019-02-20T21:33:24.462Z,13.83
2019-02-20T21:36:41.619Z,14.80
2019-02-20T21:39:51.648Z,15.73
2019-02-20T21:43:32.177Z,13.50
2019-02-20T21:46:50.777Z,16.33
2019-02-20T21:49:44.040Z,16.60
2019-02-20T21:52:52.249Z,16.33
2019-02-20T21:55:59.979Z,17.27
2019-02-20T21:59:18.018Z,16.53
2019-02-20T22:02:33.159Z,22.93
2019-02-20T22:05:43.235Z,18.20
2019-02-20T22:09:24.643Z,16.90
2019-02-20T22:12:15.971Z,16.63
2019-02-20T22:15:32.611Z,17.03
2019-02-20T22:18:51.356Z,16.30
2019-02-20T22:22:06.495Z,18.27
2019-02-20T22:25:29.318Z,20.80
2019-02-20T22:28:50.756Z,18.00
2019-02-20T22:32:01.362Z,17.63
2019-02-20T22:35:09.491Z,15.10
2019-02-20T22:37:59.858Z,18.03
2019-02-20T22:41:18.180Z,14.43
2019-02-20T22:44:50.018Z,14.77
2019-02-20T22:47:39.497Z,15.87
2019-02-20T22:50:54.261Z,17.87
2019-02-20T22:54:29.010Z,19.97
2019-02-20T22:57:42.916Z,15.27
2019-02-20T23:01:05.234Z,16.53
2019-02-20T23:04:24.399Z,14.97
2019-02-20T23:07:53.707Z,21.00
2019-02-20T23:11:18.804Z,19.73
2019-02-20T23:14:42.931Z,18.03
2019-02-20T23:17:13.570Z,19.77
2019-02-20T23:19:43.926Z,16.07
2019-02-20T23:22:14.606Z,15.43
2019-02-20T23:24:44.979Z,17.83
2019-02-20T23:27:15.344Z,16.23
2019-02-20T23:29:45.895Z,16.63
2019-02-20T23:32:16.236Z,16.07
2019-02-20T23:34:46.571Z,16.83
2019-02-20T23:37:17.726Z,18.73
2019-02-20T23:39:48.105Z,17.37
2019-02-20T23:42:18.763Z,15.53
2019-02-20T23:44:49.086Z,18.07
2019-02-20T23:47:19.463Z,18.73
2019-02-20T23:49:50.043Z,14.33
2019-02-20T23:52:20.423Z,18.33
2019-02-20T23:54:50.792Z,17.37
2019-02-20T23:57:21.131Z,17.47
2019-02-20T23:59:51.740Z,15.93
